Aimwell, LA

6:34 PM CST on December 22, 2014 (GMT -0600)
Alexandria Esler Regional | Change Station
CLOSE
Current Station
Airport
Location: Alexandria Esle,
Elevation: 112 ft
Nearby Weather Stations

Elev 112 ft 31.39 °N, 92.30 °W | Updated 16 minutes ago

Partly Cloudy
Partly Cloudy
67 °F
Feels Like 67 °F
N
5
Wind Variable Wind from SW

Today
High -- | Low -- °F
--% Chance of Precip.
Yesterday
High -- | Low -- °F
Precip. -- in
7:04 AM 5:08 PM
New Moon, 1% visible
Pressure 29.63 in
Visibility 10.0 miles
Clouds Mostly Cloudy 2800 ft
Dew Point 60 °F
Humidity 79%
Rainfall 0.00 in
Snow Depth Not available.
UV 0 out of 12
Pollen 2.90 out of 12
Air Quality Not available.
Flu Activity Not available.
SPECI KESF 230018Z AUTO 22004KT 10SM BKN028 19/16 A2963 RMK AO2 T01940156

More Conditions Fewer Conditions

Pressure 29.63 in
Visibility 10.0 miles
Clouds Mostly Cloudy 2800 ft
Dew Point 60 °F
Humidity 79%
Rainfall 0.00 in
Snow Depth Not available.
UV 0 out of 12
Pollen 2.90 out of 12
Air Quality Not available.
Flu Activity Not available.
SPECI KESF 230018Z AUTO 22004KT 10SM BKN028 19/16 A2963 RMK AO2 T01940156

More Conditions Fewer Conditions

10-Day Weather Forecast

Almanac

Astronomy

Dec. 22, 2014 Rise Set
Actual Time
Civil Twilight
Nautical Twilight
Astronomical Twilight
Moon
Length of Visible Light
Length of Day
Tomorrow will be .
, % of the Moon is Illuminated

Today's Extremes

State Highs State Lows

Community

WunderPhotos

Upload Photos

1,779,738 photos uploaded!

WunderBlogs® & News

Nearby

Air Quality

  Air Quality AQ Index Pollutant
Not available.

Snow Depth

Station Depth Elevation

Earthquake Activity

City Distance Mag. Time & Date
Minimum magnitude displayed is 2.5.

Coastal Water Temperatures

Place Temperature

Nearby Weather Stations